sensor_id;sensor_type;location;lat;lon;timestamp;temperature;humidity
56172;DHT22;42052;41.634;-0.946;2022-07-23T00:02:06;28.00;45.50
56172;DHT22;42052;41.634;-0.946;2022-07-23T00:04:33;28.00;45.40
56172;DHT22;42052;41.634;-0.946;2022-07-23T00:06:59;28.00;46.20
56172;DHT22;42052;41.634;-0.946;2022-07-23T00:09:25;28.00;45.40
56172;DHT22;42052;41.634;-0.946;2022-07-23T00:11:50;28.00;45.30
56172;DHT22;42052;41.634;-0.946;2022-07-23T00:14:16;28.00;45.50
56172;DHT22;42052;41.634;-0.946;2022-07-23T00:16:42;28.00;45.50
56172;DHT22;42052;41.634;-0.946;2022-07-23T00:19:08;28.00;45.50
56172;DHT22;42052;41.634;-0.946;2022-07-23T00:21:34;28.00;45.50
56172;DHT22;42052;41.634;-0.946;2022-07-23T00:24:00;28.00;45.50
56172;DHT22;42052;41.634;-0.946;2022-07-23T00:26:26;28.00;45.50
56172;DHT22;42052;41.634;-0.946;2022-07-23T00:28:51;28.00;45.30
56172;DHT22;42052;41.634;-0.946;2022-07-23T00:31:17;28.00;45.50
56172;DHT22;42052;41.634;-0.946;2022-07-23T00:33:43;28.00;45.40
56172;DHT22;42052;41.634;-0.946;2022-07-23T00:36:09;27.90;45.30
56172;DHT22;42052;41.634;-0.946;2022-07-23T00:38:35;27.90;45.40
56172;DHT22;42052;41.634;-0.946;2022-07-23T00:41:01;28.00;45.40
56172;DHT22;42052;41.634;-0.946;2022-07-23T00:43:26;27.90;45.30
56172;DHT22;42052;41.634;-0.946;2022-07-23T00:45:52;28.00;45.30
56172;DHT22;42052;41.634;-0.946;2022-07-23T00:48:18;28.00;45.40
56172;DHT22;42052;41.634;-0.946;2022-07-23T00:50:44;28.00;45.40
56172;DHT22;42052;41.634;-0.946;2022-07-23T00:53:10;27.90;45.30
56172;DHT22;42052;41.634;-0.946;2022-07-23T00:55:36;28.00;45.20
56172;DHT22;42052;41.634;-0.946;2022-07-23T00:58:03;28.00;45.10
56172;DHT22;42052;41.634;-0.946;2022-07-23T01:00:29;28.00;45.10
56172;DHT22;42052;41.634;-0.946;2022-07-23T01:02:55;27.90;44.90
56172;DHT22;42052;41.634;-0.946;2022-07-23T01:05:21;27.90;44.90
56172;DHT22;42052;41.634;-0.946;2022-07-23T01:07:51;27.90;45.00
56172;DHT22;42052;41.634;-0.946;2022-07-23T01:10:17;27.90;45.00
56172;DHT22;42052;41.634;-0.946;2022-07-23T01:13:06;27.90;45.10
56172;DHT22;42052;41.634;-0.946;2022-07-23T01:15:37;27.90;45.10
56172;DHT22;42052;41.634;-0.946;2022-07-23T01:18:04;27.90;45.10
56172;DHT22;42052;41.634;-0.946;2022-07-23T01:20:30;27.90;45.10
56172;DHT22;42052;41.634;-0.946;2022-07-23T01:22:57;27.90;45.10
56172;DHT22;42052;41.634;-0.946;2022-07-23T01:25:22;27.90;45.00
56172;DHT22;42052;41.634;-0.946;2022-07-23T01:27:48;27.90;45.00
56172;DHT22;42052;41.634;-0.946;2022-07-23T01:30:14;27.90;45.00
56172;DHT22;42052;41.634;-0.946;2022-07-23T01:32:40;27.90;45.00
56172;DHT22;42052;41.634;-0.946;2022-07-23T01:35:07;27.90;45.00
56172;DHT22;42052;41.634;-0.946;2022-07-23T01:37:33;27.90;44.80
56172;DHT22;42052;41.634;-0.946;2022-07-23T01:39:59;27.90;44.60
56172;DHT22;42052;41.634;-0.946;2022-07-23T01:42:25;27.90;44.50
56172;DHT22;42052;41.634;-0.946;2022-07-23T01:44:51;27.90;44.50
56172;DHT22;42052;41.634;-0.946;2022-07-23T01:47:17;27.80;44.60
56172;DHT22;42052;41.634;-0.946;2022-07-23T01:49:43;27.90;44.80
56172;DHT22;42052;41.634;-0.946;2022-07-23T01:52:09;27.90;44.70
56172;DHT22;42052;41.634;-0.946;2022-07-23T01:54:37;27.80;44.70
56172;DHT22;42052;41.634;-0.946;2022-07-23T01:57:03;27.90;44.80
56172;DHT22;42052;41.634;-0.946;2022-07-23T01:59:30;27.90;44.90
56172;DHT22;42052;41.634;-0.946;2022-07-23T02:01:56;27.90;45.00
56172;DHT22;42052;41.634;-0.946;2022-07-23T02:04:23;27.80;44.90
56172;DHT22;42052;41.634;-0.946;2022-07-23T02:06:50;27.80;45.00
56172;DHT22;42052;41.634;-0.946;2022-07-23T02:09:16;27.80;44.80
56172;DHT22;42052;41.634;-0.946;2022-07-23T02:11:43;27.80;44.90
56172;DHT22;42052;41.634;-0.946;2022-07-23T02:14:09;27.80;45.00
56172;DHT22;42052;41.634;-0.946;2022-07-23T02:16:35;27.80;44.80
56172;DHT22;42052;41.634;-0.946;2022-07-23T02:19:01;27.80;44.80
56172;DHT22;42052;41.634;-0.946;2022-07-23T02:21:27;27.80;45.00
56172;DHT22;42052;41.634;-0.946;2022-07-23T02:23:52;27.80;44.90
56172;DHT22;42052;41.634;-0.946;2022-07-23T02:26:18;27.80;44.90
56172;DHT22;42052;41.634;-0.946;2022-07-23T02:28:44;27.80;44.90
56172;DHT22;42052;41.634;-0.946;2022-07-23T02:31:10;27.80;44.90
56172;DHT22;42052;41.634;-0.946;2022-07-23T02:33:36;27.80;44.70
56172;DHT22;42052;41.634;-0.946;2022-07-23T02:36:01;27.80;44.80
56172;DHT22;42052;41.634;-0.946;2022-07-23T02:38:27;27.80;44.70
56172;DHT22;42052;41.634;-0.946;2022-07-23T02:40:53;27.80;44.70
56172;DHT22;42052;41.634;-0.946;2022-07-23T02:43:19;27.80;44.50
56172;DHT22;42052;41.634;-0.946;2022-07-23T02:45:45;27.80;44.60
56172;DHT22;42052;41.634;-0.946;2022-07-23T02:48:11;27.80;44.70
56172;DHT22;42052;41.634;-0.946;2022-07-23T02:50:38;27.80;44.70
56172;DHT22;42052;41.634;-0.946;2022-07-23T02:53:04;27.80;44.70
56172;DHT22;42052;41.634;-0.946;2022-07-23T02:55:30;27.80;44.70
56172;DHT22;42052;41.634;-0.946;2022-07-23T02:57:57;27.80;44.80
56172;DHT22;42052;41.634;-0.946;2022-07-23T03:00:23;27.80;44.90
56172;DHT22;42052;41.634;-0.946;2022-07-23T03:02:49;27.80;44.90
56172;DHT22;42052;41.634;-0.946;2022-07-23T03:05:14;27.80;44.60
56172;DHT22;42052;41.634;-0.946;2022-07-23T03:07:40;27.70;44.50
56172;DHT22;42052;41.634;-0.946;2022-07-23T03:10:06;27.70;44.60
56172;DHT22;42052;41.634;-0.946;2022-07-23T03:12:32;27.70;44.60
56172;DHT22;42052;41.634;-0.946;2022-07-23T03:14:58;27.70;44.80
56172;DHT22;42052;41.634;-0.946;2022-07-23T03:17:24;27.70;45.60
56172;DHT22;42052;41.634;-0.946;2022-07-23T03:19:50;27.80;44.90
56172;DHT22;42052;41.634;-0.946;2022-07-23T03:22:16;27.80;44.90
56172;DHT22;42052;41.634;-0.946;2022-07-23T03:24:42;27.70;44.90
56172;DHT22;42052;41.634;-0.946;2022-07-23T03:27:23;27.70;44.90
56172;DHT22;42052;41.634;-0.946;2022-07-23T03:29:53;27.80;44.90
56172;DHT22;42052;41.634;-0.946;2022-07-23T03:32:21;27.80;44.90
56172;DHT22;42052;41.634;-0.946;2022-07-23T03:34:47;27.70;44.70
56172;DHT22;42052;41.634;-0.946;2022-07-23T03:37:13;27.70;44.80
56172;DHT22;42052;41.634;-0.946;2022-07-23T03:39:40;27.70;44.80
56172;DHT22;42052;41.634;-0.946;2022-07-23T03:42:06;27.70;45.40
56172;DHT22;42052;41.634;-0.946;2022-07-23T03:44:32;27.70;44.70
56172;DHT22;42052;41.634;-0.946;2022-07-23T03:46:58;27.70;44.80
56172;DHT22;42052;41.634;-0.946;2022-07-23T03:49:24;27.70;44.70
56172;DHT22;42052;41.634;-0.946;2022-07-23T03:51:50;27.70;44.70
56172;DHT22;42052;41.634;-0.946;2022-07-23T03:54:16;27.70;44.60
56172;DHT22;42052;41.634;-0.946;2022-07-23T03:56:42;27.70;44.70
56172;DHT22;42052;41.634;-0.946;2022-07-23T03:59:08;27.70;44.80
56172;DHT22;42052;41.634;-0.946;2022-07-23T04:01:34;27.70;44.70
56172;DHT22;42052;41.634;-0.946;2022-07-23T04:04:01;27.70;44.50
56172;DHT22;42052;41.634;-0.946;2022-07-23T04:06:27;27.70;44.50
56172;DHT22;42052;41.634;-0.946;2022-07-23T04:08:52;27.70;44.70
56172;DHT22;42052;41.634;-0.946;2022-07-23T04:11:18;27.70;44.70
56172;DHT22;42052;41.634;-0.946;2022-07-23T04:13:44;27.70;44.70
56172;DHT22;42052;41.634;-0.946;2022-07-23T04:16:10;27.70;44.70
56172;DHT22;42052;41.634;-0.946;2022-07-23T04:18:36;27.70;44.70
56172;DHT22;42052;41.634;-0.946;2022-07-23T04:21:02;27.70;44.70
56172;DHT22;42052;41.634;-0.946;2022-07-23T04:23:28;27.70;44.60
56172;DHT22;42052;41.634;-0.946;2022-07-23T04:25:53;27.70;44.50
56172;DHT22;42052;41.634;-0.946;2022-07-23T04:28:19;27.70;44.70
56172;DHT22;42052;41.634;-0.946;2022-07-23T04:30:45;27.70;44.70
56172;DHT22;42052;41.634;-0.946;2022-07-23T04:33:11;27.70;44.50
56172;DHT22;42052;41.634;-0.946;2022-07-23T04:35:37;27.70;44.40
56172;DHT22;42052;41.634;-0.946;2022-07-23T04:38:03;27.60;44.40
56172;DHT22;42052;41.634;-0.946;2022-07-23T04:40:29;27.70;44.40
56172;DHT22;42052;41.634;-0.946;2022-07-23T04:42:56;27.70;44.60
56172;DHT22;42052;41.634;-0.946;2022-07-23T04:45:22;27.70;44.70
56172;DHT22;42052;41.634;-0.946;2022-07-23T04:47:49;27.70;44.70
56172;DHT22;42052;41.634;-0.946;2022-07-23T04:50:15;27.70;44.70
56172;DHT22;42052;41.634;-0.946;2022-07-23T04:52:44;27.60;44.50
56172;DHT22;42052;41.634;-0.946;2022-07-23T04:55:10;27.70;45.40
56172;DHT22;42052;41.634;-0.946;2022-07-23T04:57:36;27.70;44.70
56172;DHT22;42052;41.634;-0.946;2022-07-23T05:00:04;27.70;44.60
56172;DHT22;42052;41.634;-0.946;2022-07-23T05:02:30;27.70;44.60
56172;DHT22;42052;41.634;-0.946;2022-07-23T05:04:56;27.60;44.50
56172;DHT22;42052;41.634;-0.946;2022-07-23T05:07:22;27.70;44.60
56172;DHT22;42052;41.634;-0.946;2022-07-23T05:09:47;27.60;44.50
56172;DHT22;42052;41.634;-0.946;2022-07-23T05:12:13;27.70;44.50
56172;DHT22;42052;41.634;-0.946;2022-07-23T05:14:39;27.60;44.50
56172;DHT22;42052;41.634;-0.946;2022-07-23T05:17:05;27.60;44.50
56172;DHT22;42052;41.634;-0.946;2022-07-23T05:19:31;27.70;44.50
56172;DHT22;42052;41.634;-0.946;2022-07-23T05:21:57;27.60;44.50
56172;DHT22;42052;41.634;-0.946;2022-07-23T05:24:23;27.60;44.50
56172;DHT22;42052;41.634;-0.946;2022-07-23T05:26:49;27.60;44.50
56172;DHT22;42052;41.634;-0.946;2022-07-23T05:29:15;27.60;44.50
56172;DHT22;42052;41.634;-0.946;2022-07-23T05:31:41;27.60;44.40
56172;DHT22;42052;41.634;-0.946;2022-07-23T05:34:07;27.60;44.50
56172;DHT22;42052;41.634;-0.946;2022-07-23T05:36:33;27.60;44.30
56172;DHT22;42052;41.634;-0.946;2022-07-23T05:38:59;27.70;44.40
56172;DHT22;42052;41.634;-0.946;2022-07-23T05:41:25;27.60;44.40
56172;DHT22;42052;41.634;-0.946;2022-07-23T05:43:50;27.60;44.50
56172;DHT22;42052;41.634;-0.946;2022-07-23T05:46:16;27.60;44.40
56172;DHT22;42052;41.634;-0.946;2022-07-23T05:48:42;27.60;44.40
56172;DHT22;42052;41.634;-0.946;2022-07-23T05:51:08;27.60;44.30
56172;DHT22;42052;41.634;-0.946;2022-07-23T05:53:35;27.60;44.40
56172;DHT22;42052;41.634;-0.946;2022-07-23T05:56:01;27.60;44.40
56172;DHT22;42052;41.634;-0.946;2022-07-23T05:58:27;27.60;44.50
56172;DHT22;42052;41.634;-0.946;2022-07-23T06:00:53;27.60;44.50
56172;DHT22;42052;41.634;-0.946;2022-07-23T06:03:19;27.60;44.50
56172;DHT22;42052;41.634;-0.946;2022-07-23T06:05:45;27.60;44.50
56172;DHT22;42052;41.634;-0.946;2022-07-23T06:08:12;27.60;44.50
56172;DHT22;42052;41.634;-0.946;2022-07-23T06:10:38;27.60;44.50
56172;DHT22;42052;41.634;-0.946;2022-07-23T06:13:03;27.60;44.50
56172;DHT22;42052;41.634;-0.946;2022-07-23T06:15:29;27.60;44.50
56172;DHT22;42052;41.634;-0.946;2022-07-23T06:17:56;27.60;44.50
56172;DHT22;42052;41.634;-0.946;2022-07-23T06:20:21;27.60;44.50
56172;DHT22;42052;41.634;-0.946;2022-07-23T06:22:47;27.60;44.30
56172;DHT22;42052;41.634;-0.946;2022-07-23T06:25:13;27.60;44.40
56172;DHT22;42052;41.634;-0.946;2022-07-23T06:27:39;27.60;44.30
56172;DHT22;42052;41.634;-0.946;2022-07-23T06:30:05;27.60;44.40
56172;DHT22;42052;41.634;-0.946;2022-07-23T06:32:33;27.60;44.40
56172;DHT22;42052;41.634;-0.946;2022-07-23T06:34:59;27.60;44.40
56172;DHT22;42052;41.634;-0.946;2022-07-23T06:37:25;27.50;44.30
56172;DHT22;42052;41.634;-0.946;2022-07-23T06:39:51;27.50;44.40
56172;DHT22;42052;41.634;-0.946;2022-07-23T06:42:16;27.50;44.30
56172;DHT22;42052;41.634;-0.946;2022-07-23T06:44:42;27.60;44.40
56172;DHT22;42052;41.634;-0.946;2022-07-23T06:47:08;27.60;44.40
56172;DHT22;42052;41.634;-0.946;2022-07-23T06:49:34;27.50;44.20
56172;DHT22;42052;41.634;-0.946;2022-07-23T06:52:00;27.60;44.30
56172;DHT22;42052;41.634;-0.946;2022-07-23T06:54:26;27.60;44.30
56172;DHT22;42052;41.634;-0.946;2022-07-23T06:56:51;27.50;44.10
56172;DHT22;42052;41.634;-0.946;2022-07-23T06:59:17;27.50;44.10
56172;DHT22;42052;41.634;-0.946;2022-07-23T07:01:43;27.50;44.20
56172;DHT22;42052;41.634;-0.946;2022-07-23T07:04:09;27.50;44.10
56172;DHT22;42052;41.634;-0.946;2022-07-23T07:06:35;27.50;44.10
56172;DHT22;42052;41.634;-0.946;2022-07-23T07:09:01;27.60;44.30
56172;DHT22;42052;41.634;-0.946;2022-07-23T07:11:26;27.60;44.30
56172;DHT22;42052;41.634;-0.946;2022-07-23T07:13:52;27.60;44.30
56172;DHT22;42052;41.634;-0.946;2022-07-23T07:16:18;27.60;44.30
56172;DHT22;42052;41.634;-0.946;2022-07-23T07:18:44;27.50;44.20
56172;DHT22;42052;41.634;-0.946;2022-07-23T07:21:10;27.60;44.40
56172;DHT22;42052;41.634;-0.946;2022-07-23T07:23:36;27.50;44.20
56172;DHT22;42052;41.634;-0.946;2022-07-23T07:26:02;27.50;44.30
56172;DHT22;42052;41.634;-0.946;2022-07-23T07:28:27;27.50;44.30
56172;DHT22;42052;41.634;-0.946;2022-07-23T07:30:53;27.50;44.20
56172;DHT22;42052;41.634;-0.946;2022-07-23T07:33:19;27.50;44.20
56172;DHT22;42052;41.634;-0.946;2022-07-23T07:35:46;27.50;44.00
56172;DHT22;42052;41.634;-0.946;2022-07-23T07:38:12;27.50;44.10
56172;DHT22;42052;41.634;-0.946;2022-07-23T07:40:38;27.50;44.10
56172;DHT22;42052;41.634;-0.946;2022-07-23T07:43:04;27.40;43.90
56172;DHT22;42052;41.634;-0.946;2022-07-23T07:45:30;27.40;44.00
56172;DHT22;42052;41.634;-0.946;2022-07-23T07:47:56;27.40;44.10
56172;DHT22;42052;41.634;-0.946;2022-07-23T07:50:22;27.40;44.10
56172;DHT22;42052;41.634;-0.946;2022-07-23T07:52:48;27.40;44.10
56172;DHT22;42052;41.634;-0.946;2022-07-23T07:55:14;27.40;44.00
56172;DHT22;42052;41.634;-0.946;2022-07-23T07:57:41;27.40;44.00
56172;DHT22;42052;41.634;-0.946;2022-07-23T08:00:08;27.40;44.00
56172;DHT22;42052;41.634;-0.946;2022-07-23T08:02:46;27.40;44.10
56172;DHT22;42052;41.634;-0.946;2022-07-23T08:05:13;27.30;44.10
56172;DHT22;42052;41.634;-0.946;2022-07-23T08:07:40;27.30;44.10
56172;DHT22;42052;41.634;-0.946;2022-07-23T08:10:09;27.30;44.20
56172;DHT22;42052;41.634;-0.946;2022-07-23T08:12:50;27.30;44.20
56172;DHT22;42052;41.634;-0.946;2022-07-23T08:15:18;27.30;44.30
56172;DHT22;42052;41.634;-0.946;2022-07-23T08:17:45;27.30;44.40
56172;DHT22;42052;41.634;-0.946;2022-07-23T08:20:13;27.30;44.40
56172;DHT22;42052;41.634;-0.946;2022-07-23T08:22:50;27.30;44.50
56172;DHT22;42052;41.634;-0.946;2022-07-23T08:25:30;27.30;44.50
56172;DHT22;42052;41.634;-0.946;2022-07-23T08:27:58;27.30;44.50
56172;DHT22;42052;41.634;-0.946;2022-07-23T08:30:24;27.30;44.40
56172;DHT22;42052;41.634;-0.946;2022-07-23T08:37:55;27.30;44.40
56172;DHT22;42052;41.634;-0.946;2022-07-23T08:40:21;27.20;44.40
56172;DHT22;42052;41.634;-0.946;2022-07-23T08:42:49;27.30;44.60
56172;DHT22;42052;41.634;-0.946;2022-07-23T08:45:17;27.30;44.50
56172;DHT22;42052;41.634;-0.946;2022-07-23T08:47:44;27.20;44.50
56172;DHT22;42052;41.634;-0.946;2022-07-23T08:50:10;27.20;44.20
56172;DHT22;42052;41.634;-0.946;2022-07-23T08:52:37;27.20;44.00
56172;DHT22;42052;41.634;-0.946;2022-07-23T08:55:04;27.20;44.10
56172;DHT22;42052;41.634;-0.946;2022-07-23T08:57:30;27.20;44.10
56172;DHT22;42052;41.634;-0.946;2022-07-23T08:59:58;27.20;44.20
56172;DHT22;42052;41.634;-0.946;2022-07-23T09:02:28;27.20;44.10
56172;DHT22;42052;41.634;-0.946;2022-07-23T09:04:54;27.20;44.30
56172;DHT22;42052;41.634;-0.946;2022-07-23T09:07:20;27.20;44.30
56172;DHT22;42052;41.634;-0.946;2022-07-23T09:09:45;27.20;44.30
56172;DHT22;42052;41.634;-0.946;2022-07-23T09:12:11;27.20;44.30
56172;DHT22;42052;41.634;-0.946;2022-07-23T09:14:42;27.20;44.30
56172;DHT22;42052;41.634;-0.946;2022-07-23T09:17:21;27.30;44.60
56172;DHT22;42052;41.634;-0.946;2022-07-23T09:19:47;27.20;44.40
56172;DHT22;42052;41.634;-0.946;2022-07-23T09:22:24;27.30;44.20
56172;DHT22;42052;41.634;-0.946;2022-07-23T09:25:19;27.30;44.30
56172;DHT22;42052;41.634;-0.946;2022-07-23T09:27:56;27.30;44.40
56172;DHT22;42052;41.634;-0.946;2022-07-23T09:30:24;27.30;44.40
56172;DHT22;42052;41.634;-0.946;2022-07-23T09:33:13;27.30;44.40
56172;DHT22;42052;41.634;-0.946;2022-07-23T09:35:52;27.30;44.40
56172;DHT22;42052;41.634;-0.946;2022-07-23T09:38:20;27.30;44.40
56172;DHT22;42052;41.634;-0.946;2022-07-23T09:40:47;27.30;45.10
56172;DHT22;42052;41.634;-0.946;2022-07-23T09:43:31;27.30;44.40
56172;DHT22;42052;41.634;-0.946;2022-07-23T09:46:20;27.30;44.40
56172;DHT22;42052;41.634;-0.946;2022-07-23T09:48:47;27.30;44.40
56172;DHT22;42052;41.634;-0.946;2022-07-23T09:51:13;27.30;44.50
56172;DHT22;42052;41.634;-0.946;2022-07-23T09:53:59;27.30;44.50
56172;DHT22;42052;41.634;-0.946;2022-07-23T09:56:27;27.40;44.60
56172;DHT22;42052;41.634;-0.946;2022-07-23T09:58:54;27.40;44.60
56172;DHT22;42052;41.634;-0.946;2022-07-23T10:01:31;27.40;44.60
56172;DHT22;42052;41.634;-0.946;2022-07-23T10:03:59;27.40;44.50
56172;DHT22;42052;41.634;-0.946;2022-07-23T10:06:26;27.40;44.50
56172;DHT22;42052;41.634;-0.946;2022-07-23T10:08:54;27.40;44.50
56172;DHT22;42052;41.634;-0.946;2022-07-23T10:11:24;27.40;44.50
56172;DHT22;42052;41.634;-0.946;2022-07-23T10:13:50;27.40;44.50
56172;DHT22;42052;41.634;-0.946;2022-07-23T10:16:19;27.40;44.50
56172;DHT22;42052;41.634;-0.946;2022-07-23T10:18:46;27.40;44.60
56172;DHT22;42052;41.634;-0.946;2022-07-23T10:21:18;27.40;44.70
56172;DHT22;42052;41.634;-0.946;2022-07-23T10:27:02;27.40;44.70
56172;DHT22;42052;41.634;-0.946;2022-07-23T10:29:52;27.50;44.70
56172;DHT22;42052;41.634;-0.946;2022-07-23T10:32:44;27.50;44.80
56172;DHT22;42052;41.634;-0.946;2022-07-23T10:35:26;27.50;44.70
56172;DHT22;42052;41.634;-0.946;2022-07-23T10:38:00;27.50;44.80
56172;DHT22;42052;41.634;-0.946;2022-07-23T10:40:27;27.50;44.80
56172;DHT22;42052;41.634;-0.946;2022-07-23T10:42:58;27.50;44.80
56172;DHT22;42052;41.634;-0.946;2022-07-23T10:45:33;27.60;44.90
56172;DHT22;42052;41.634;-0.946;2022-07-23T10:48:22;27.60;44.90
56172;DHT22;42052;41.634;-0.946;2022-07-23T10:51:27;27.60;44.90
56172;DHT22;42052;41.634;-0.946;2022-07-23T10:53:55;27.60;44.90
56172;DHT22;42052;41.634;-0.946;2022-07-23T10:59:22;27.60;44.90
56172;DHT22;42052;41.634;-0.946;2022-07-23T11:01:48;27.60;44.90
56172;DHT22;42052;41.634;-0.946;2022-07-23T11:04:15;27.60;44.90
56172;DHT22;42052;41.634;-0.946;2022-07-23T11:09:40;27.60;45.00
56172;DHT22;42052;41.634;-0.946;2022-07-23T11:17:25;27.70;45.10
56172;DHT22;42052;41.634;-0.946;2022-07-23T11:25:08;27.70;45.10
56172;DHT22;42052;41.634;-0.946;2022-07-23T11:27:42;27.60;45.00
56172;DHT22;42052;41.634;-0.946;2022-07-23T11:30:10;27.70;45.10
56172;DHT22;42052;41.634;-0.946;2022-07-23T11:33:18;27.70;45.20
56172;DHT22;42052;41.634;-0.946;2022-07-23T11:35:46;27.60;45.10
56172;DHT22;42052;41.634;-0.946;2022-07-23T11:38:20;27.70;45.20
56172;DHT22;42052;41.634;-0.946;2022-07-23T11:40:52;27.70;45.30
56172;DHT22;42052;41.634;-0.946;2022-07-23T11:43:18;27.70;45.30
56172;DHT22;42052;41.634;-0.946;2022-07-23T11:45:47;27.70;46.00
56172;DHT22;42052;41.634;-0.946;2022-07-23T11:48:19;27.60;45.20
56172;DHT22;42052;41.634;-0.946;2022-07-23T11:50:46;27.70;45.30
56172;DHT22;42052;41.634;-0.946;2022-07-23T11:53:12;27.70;45.30
56172;DHT22;42052;41.634;-0.946;2022-07-23T11:55:38;27.70;45.40
56172;DHT22;42052;41.634;-0.946;2022-07-23T11:58:04;27.60;45.30
56172;DHT22;42052;41.634;-0.946;2022-07-23T12:00:31;27.70;45.30
56172;DHT22;42052;41.634;-0.946;2022-07-23T12:03:00;27.70;45.30
56172;DHT22;42052;41.634;-0.946;2022-07-23T12:05:35;27.70;45.30
56172;DHT22;42052;41.634;-0.946;2022-07-23T12:08:04;27.70;45.30
56172;DHT22;42052;41.634;-0.946;2022-07-23T12:10:35;27.70;45.30
56172;DHT22;42052;41.634;-0.946;2022-07-23T12:13:10;27.70;45.30
56172;DHT22;42052;41.634;-0.946;2022-07-23T12:15:40;27.70;45.30
56172;DHT22;42052;41.634;-0.946;2022-07-23T12:18:08;27.70;45.30
56172;DHT22;42052;41.634;-0.946;2022-07-23T12:20:43;27.70;45.30
56172;DHT22;42052;41.634;-0.946;2022-07-23T12:23:12;27.70;46.00
56172;DHT22;42052;41.634;-0.946;2022-07-23T12:25:40;27.80;45.30
56172;DHT22;42052;41.634;-0.946;2022-07-23T12:28:18;27.80;45.30
56172;DHT22;42052;41.634;-0.946;2022-07-23T12:30:52;27.80;45.30
56172;DHT22;42052;41.634;-0.946;2022-07-23T12:35:54;27.80;45.40
56172;DHT22;42052;41.634;-0.946;2022-07-23T12:38:22;27.80;45.30
56172;DHT22;42052;41.634;-0.946;2022-07-23T12:41:07;27.80;45.30
56172;DHT22;42052;41.634;-0.946;2022-07-23T12:43:36;27.80;45.30
56172;DHT22;42052;41.634;-0.946;2022-07-23T12:46:07;27.80;45.30
56172;DHT22;42052;41.634;-0.946;2022-07-23T12:48:54;27.80;45.30
56172;DHT22;42052;41.634;-0.946;2022-07-23T12:51:27;27.80;45.40
56172;DHT22;42052;41.634;-0.946;2022-07-23T12:54:03;27.80;45.30
56172;DHT22;42052;41.634;-0.946;2022-07-23T12:56:35;27.90;45.40
56172;DHT22;42052;41.634;-0.946;2022-07-23T13:01:44;27.90;45.30
56172;DHT22;42052;41.634;-0.946;2022-07-23T13:04:22;27.90;45.30
56172;DHT22;42052;41.634;-0.946;2022-07-23T13:09:19;27.90;45.30
56172;DHT22;42052;41.634;-0.946;2022-07-23T13:11:46;27.90;45.30
56172;DHT22;42052;41.634;-0.946;2022-07-23T13:14:12;27.90;45.30
56172;DHT22;42052;41.634;-0.946;2022-07-23T13:16:39;27.90;45.30
56172;DHT22;42052;41.634;-0.946;2022-07-23T13:19:05;27.90;45.30
56172;DHT22;42052;41.634;-0.946;2022-07-23T13:21:32;27.90;45.30
56172;DHT22;42052;41.634;-0.946;2022-07-23T13:23:58;27.90;45.30
56172;DHT22;42052;41.634;-0.946;2022-07-23T13:26:25;27.90;45.30
56172;DHT22;42052;41.634;-0.946;2022-07-23T13:28:51;27.90;46.10
56172;DHT22;42052;41.634;-0.946;2022-07-23T13:31:17;27.90;45.30
56172;DHT22;42052;41.634;-0.946;2022-07-23T13:33:43;27.90;45.30
56172;DHT22;42052;41.634;-0.946;2022-07-23T13:36:09;27.90;45.30
56172;DHT22;42052;41.634;-0.946;2022-07-23T13:38:36;28.00;45.50
56172;DHT22;42052;41.634;-0.946;2022-07-23T13:41:02;28.00;45.40
56172;DHT22;42052;41.634;-0.946;2022-07-23T13:43:32;28.00;45.50
56172;DHT22;42052;41.634;-0.946;2022-07-23T13:45:58;27.90;45.40
56172;DHT22;42052;41.634;-0.946;2022-07-23T13:48:24;27.90;45.40
56172;DHT22;42052;41.634;-0.946;2022-07-23T13:50:50;28.00;45.50
56172;DHT22;42052;41.634;-0.946;2022-07-23T13:53:20;27.90;45.40
56172;DHT22;42052;41.634;-0.946;2022-07-23T13:55:47;28.00;45.50
56172;DHT22;42052;41.634;-0.946;2022-07-23T13:58:13;28.00;45.50
56172;DHT22;42052;41.634;-0.946;2022-07-23T14:00:42;28.00;45.50
56172;DHT22;42052;41.634;-0.946;2022-07-23T14:03:09;28.00;45.50
56172;DHT22;42052;41.634;-0.946;2022-07-23T14:05:35;28.00;45.50
56172;DHT22;42052;41.634;-0.946;2022-07-23T14:08:02;27.90;45.50
56172;DHT22;42052;41.634;-0.946;2022-07-23T14:10:29;28.00;45.60
56172;DHT22;42052;41.634;-0.946;2022-07-23T14:12:55;28.00;45.60
56172;DHT22;42052;41.634;-0.946;2022-07-23T14:15:24;28.00;45.60
56172;DHT22;42052;41.634;-0.946;2022-07-23T14:17:53;27.90;45.60
56172;DHT22;42052;41.634;-0.946;2022-07-23T14:20:19;28.00;45.70
56172;DHT22;42052;41.634;-0.946;2022-07-23T14:22:45;28.00;45.70
56172;DHT22;42052;41.634;-0.946;2022-07-23T14:25:11;28.00;45.70
56172;DHT22;42052;41.634;-0.946;2022-07-23T14:27:38;27.90;45.60
56172;DHT22;42052;41.634;-0.946;2022-07-23T14:30:06;28.00;45.70
56172;DHT22;42052;41.634;-0.946;2022-07-23T14:32:32;28.00;45.70
56172;DHT22;42052;41.634;-0.946;2022-07-23T14:34:58;27.90;45.60
56172;DHT22;42052;41.634;-0.946;2022-07-23T14:37:24;28.00;45.70
56172;DHT22;42052;41.634;-0.946;2022-07-23T14:39:51;28.00;45.70
56172;DHT22;42052;41.634;-0.946;2022-07-23T14:42:17;28.00;46.50
56172;DHT22;42052;41.634;-0.946;2022-07-23T14:44:43;28.00;45.70
56172;DHT22;42052;41.634;-0.946;2022-07-23T14:47:10;28.00;45.70
56172;DHT22;42052;41.634;-0.946;2022-07-23T14:49:36;28.00;45.70
56172;DHT22;42052;41.634;-0.946;2022-07-23T14:52:03;28.00;45.70
56172;DHT22;42052;41.634;-0.946;2022-07-23T14:54:29;28.00;45.70
56172;DHT22;42052;41.634;-0.946;2022-07-23T14:56:56;28.00;45.80
56172;DHT22;42052;41.634;-0.946;2022-07-23T14:59:22;28.00;45.70
56172;DHT22;42052;41.634;-0.946;2022-07-23T15:01:49;28.00;45.70
56172;DHT22;42052;41.634;-0.946;2022-07-23T15:04:15;28.00;45.70
56172;DHT22;42052;41.634;-0.946;2022-07-23T15:06:42;28.00;45.80
56172;DHT22;42052;41.634;-0.946;2022-07-23T15:09:08;28.00;45.70
56172;DHT22;42052;41.634;-0.946;2022-07-23T15:11:34;28.00;45.70
56172;DHT22;42052;41.634;-0.946;2022-07-23T15:14:03;28.00;45.70
56172;DHT22;42052;41.634;-0.946;2022-07-23T15:16:29;28.00;45.80
56172;DHT22;42052;41.634;-0.946;2022-07-23T15:18:55;28.00;45.90
56172;DHT22;42052;41.634;-0.946;2022-07-23T15:21:21;28.00;45.80
56172;DHT22;42052;41.634;-0.946;2022-07-23T15:23:47;28.00;45.90
56172;DHT22;42052;41.634;-0.946;2022-07-23T15:26:13;28.00;45.80
56172;DHT22;42052;41.634;-0.946;2022-07-23T15:28:41;28.00;45.80
56172;DHT22;42052;41.634;-0.946;2022-07-23T15:31:07;28.00;45.90
56172;DHT22;42052;41.634;-0.946;2022-07-23T15:33:33;28.00;45.90
56172;DHT22;42052;41.634;-0.946;2022-07-23T15:36:01;28.00;45.90
56172;DHT22;42052;41.634;-0.946;2022-07-23T15:38:27;28.00;45.90
56172;DHT22;42052;41.634;-0.946;2022-07-23T15:40:56;28.10;45.90
56172;DHT22;42052;41.634;-0.946;2022-07-23T15:43:23;28.00;45.90
56172;DHT22;42052;41.634;-0.946;2022-07-23T15:45:50;28.10;46.00
56172;DHT22;42052;41.634;-0.946;2022-07-23T15:48:18;28.00;45.90
56172;DHT22;42052;41.634;-0.946;2022-07-23T15:50:45;28.10;46.00
56172;DHT22;42052;41.634;-0.946;2022-07-23T15:53:11;28.10;46.00